createdAt,value
2023-03-22T00:01:21.295Z,7.05
2023-03-22T00:03:49.269Z,7.45
2023-03-22T00:06:16.749Z,7.75
2023-03-22T00:08:44.378Z,7.60
2023-03-22T00:11:12.913Z,8.18
2023-03-22T00:13:39.807Z,8.30
2023-03-22T00:16:07.084Z,8.15
2023-03-22T00:18:34.294Z,8.52
2023-03-22T00:21:01.855Z,7.57
2023-03-22T00:23:29.467Z,7.75
2023-03-22T00:25:56.570Z,8.45
2023-03-22T00:28:24.608Z,8.57
2023-03-22T00:31:00.497Z,8.23
2023-03-22T00:33:28.558Z,7.50
2023-03-22T00:36:00.371Z,8.13
2023-03-22T00:38:42.382Z,8.45
2023-03-22T00:41:16.217Z,8.10
2023-03-22T00:43:43.597Z,7.55
2023-03-22T00:46:11.383Z,7.07
2023-03-22T00:48:38.731Z,7.90
2023-03-22T00:51:06.222Z,6.82
2023-03-22T00:53:33.447Z,7.53
2023-03-22T00:56:00.591Z,6.90
2023-03-22T00:58:27.339Z,6.97
2023-03-22T01:00:54.210Z,7.28
2023-03-22T01:03:22.056Z,7.25
2023-03-22T01:05:52.182Z,7.32
2023-03-22T01:08:18.952Z,8.45
2023-03-22T01:10:46.090Z,9.18
2023-03-22T01:13:13.086Z,8.77
2023-03-22T01:15:40.015Z,8.93
2023-03-22T01:18:07.662Z,10.10
2023-03-22T01:20:35.277Z,10.52
2023-03-22T01:23:02.120Z,9.65
2023-03-22T01:25:28.963Z,10.10
2023-03-22T01:27:56.058Z,9.20
2023-03-22T01:30:22.868Z,8.77
2023-03-22T01:32:49.690Z,8.75
2023-03-22T01:35:16.544Z,8.43
2023-03-22T01:37:43.342Z,7.65
2023-03-22T01:40:13.413Z,7.97
2023-03-22T01:42:40.353Z,8.18
2023-03-22T01:45:27.549Z,9.38
2023-03-22T01:48:02.479Z,7.97
2023-03-22T01:50:31.252Z,8.13
2023-03-22T01:53:00.589Z,8.70
2023-03-22T01:55:28.188Z,8.30
2023-03-22T01:57:55.564Z,8.85
2023-03-22T02:00:22.691Z,9.00
2023-03-22T02:02:52.394Z,8.48
2023-03-22T02:05:22.269Z,7.80
2023-03-22T02:07:50.615Z,8.07
2023-03-22T02:10:22.187Z,6.80
2023-03-22T02:13:07.230Z,7.50
2023-03-22T02:15:43.551Z,7.47
2023-03-22T02:18:16.497Z,5.97
2023-03-22T02:21:02.439Z,6.03
2023-03-22T02:24:03.790Z,6.15
2023-03-22T02:26:51.749Z,6.07
2023-03-22T02:29:34.060Z,6.55
2023-03-22T02:32:12.565Z,6.75
2023-03-22T02:35:21.378Z,5.72
2023-03-22T02:38:00.318Z,6.07
2023-03-22T02:40:39.489Z,5.70
2023-03-22T02:43:41.678Z,5.72
2023-03-22T02:46:18.949Z,5.60
2023-03-22T02:49:08.471Z,4.93
2023-03-22T02:51:47.460Z,5.05
2023-03-22T02:54:18.991Z,6.22
2023-03-22T02:56:57.795Z,5.15
2023-03-22T02:59:26.886Z,6.10
2023-03-22T03:01:58.259Z,5.90
2023-03-22T03:04:29.416Z,5.85
2023-03-22T03:07:00.469Z,5.43
2023-03-22T03:09:28.171Z,5.67
2023-03-22T03:11:55.336Z,6.78
2023-03-22T03:14:26.729Z,5.97
2023-03-22T03:17:16.789Z,5.97
2023-03-22T03:19:51.738Z,5.93
2023-03-22T03:22:29.595Z,5.65
2023-03-22T03:25:34.167Z,5.10
2023-03-22T03:28:11.418Z,5.80
2023-03-22T03:30:48.747Z,4.60
2023-03-22T03:33:19.754Z,4.32
2023-03-22T03:36:01.510Z,4.67
2023-03-22T03:38:32.007Z,4.88
2023-03-22T03:41:27.443Z,4.70
2023-03-22T03:43:56.242Z,4.32
2023-03-22T03:46:23.023Z,4.22
2023-03-22T03:48:51.811Z,4.57
2023-03-22T03:51:18.847Z,4.28
2023-03-22T03:53:45.576Z,4.50
2023-03-22T03:56:12.434Z,4.50
2023-03-22T03:58:39.170Z,4.45
2023-03-22T04:01:06.188Z,4.50
2023-03-22T04:03:33.033Z,4.35
2023-03-22T04:05:59.904Z,4.68
2023-03-22T04:08:27.395Z,4.72
2023-03-22T04:10:54.187Z,4.15
2023-03-22T04:13:25.187Z,4.78
2023-03-22T04:15:55.445Z,4.70
2023-03-22T04:18:22.226Z,4.10
2023-03-22T04:20:49.564Z,4.93
2023-03-22T04:23:16.595Z,5.68
2023-03-22T04:25:43.705Z,4.68
2023-03-22T04:28:10.507Z,5.22
2023-03-22T04:30:37.537Z,5.80
2023-03-22T04:33:08.513Z,5.22
2023-03-22T04:35:35.452Z,5.47
2023-03-22T04:38:02.225Z,5.03
2023-03-22T04:40:31.802Z,5.97
2023-03-22T04:42:58.975Z,5.90
2023-03-22T04:45:29.278Z,5.70
2023-03-22T04:47:56.422Z,5.72
2023-03-22T04:50:23.350Z,5.57
2023-03-22T04:52:50.375Z,5.57
2023-03-22T04:55:17.167Z,6.32
2023-03-22T04:57:43.919Z,5.03
2023-03-22T05:00:11.341Z,5.68
2023-03-22T05:02:41.490Z,4.70
2023-03-22T05:05:08.548Z,5.20
2023-03-22T05:07:36.572Z,4.97
2023-03-22T05:10:03.535Z,5.32
2023-03-22T05:12:30.317Z,4.88
2023-03-22T05:14:57.102Z,4.43
2023-03-22T05:17:23.835Z,4.82
2023-03-22T05:19:51.939Z,4.63
2023-03-22T05:22:19.296Z,5.03
2023-03-22T05:24:46.172Z,4.40
2023-03-22T05:27:14.224Z,4.88
2023-03-22T05:29:45.010Z,4.93
2023-03-22T05:32:12.141Z,5.05
2023-03-22T05:34:40.119Z,5.50
2023-03-22T05:37:06.842Z,5.45
2023-03-22T05:39:33.876Z,5.38
2023-03-22T05:42:00.650Z,5.28
2023-03-22T05:44:27.560Z,6.15
2023-03-22T05:46:54.319Z,7.82
2023-03-22T05:49:21.212Z,6.95
2023-03-22T05:51:48.136Z,7.78
2023-03-22T05:54:14.864Z,6.75
2023-03-22T05:56:41.564Z,5.63
2023-03-22T05:59:08.359Z,5.30
2023-03-22T06:01:35.326Z,5.32
2023-03-22T06:04:02.288Z,5.07
2023-03-22T06:06:29.151Z,4.65
2023-03-22T06:09:04.294Z,5.28
2023-03-22T06:11:41.185Z,4.70
2023-03-22T06:14:08.049Z,5.13
2023-03-22T06:16:34.868Z,4.70
2023-03-22T06:19:01.691Z,4.32
2023-03-22T06:21:28.473Z,4.35
2023-03-22T06:23:55.260Z,4.60
2023-03-22T06:26:22.014Z,4.25
2023-03-22T06:28:48.879Z,4.70
2023-03-22T06:31:15.861Z,4.65
2023-03-22T06:33:42.653Z,4.00
2023-03-22T06:36:09.734Z,4.40
2023-03-22T06:38:36.460Z,3.88
2023-03-22T06:41:03.365Z,4.18
2023-03-22T06:43:30.474Z,3.53
2023-03-22T06:45:57.416Z,3.30
2023-03-22T06:48:24.263Z,3.60
2023-03-22T06:50:51.090Z,3.47
2023-03-22T06:53:17.801Z,3.35
2023-03-22T06:55:44.584Z,2.95
2023-03-22T06:58:11.699Z,3.00
2023-03-22T07:00:39.313Z,3.00
2023-03-22T07:03:06.247Z,3.05
2023-03-22T07:05:33.077Z,2.60
2023-03-22T07:07:59.857Z,2.03
2023-03-22T07:10:26.614Z,2.30
2023-03-22T07:12:53.383Z,2.28
2023-03-22T07:15:24.306Z,2.50
2023-03-22T07:17:52.227Z,2.53
2023-03-22T07:20:20.033Z,2.60
2023-03-22T07:22:47.089Z,2.33
2023-03-22T07:25:14.025Z,2.10
2023-03-22T07:27:41.170Z,2.40
2023-03-22T07:30:09.819Z,2.60
2023-03-22T07:32:37.065Z,2.60
2023-03-22T07:35:04.141Z,2.60
2023-03-22T07:37:31.283Z,2.60
2023-03-22T07:39:58.049Z,2.20
2023-03-22T07:42:24.874Z,2.35
2023-03-22T07:44:51.961Z,2.70
2023-03-22T07:47:27.192Z,2.45
2023-03-22T07:52:27.959Z,2.50
2023-03-22T07:54:54.737Z,3.20
2023-03-22T07:57:21.502Z,3.05
2023-03-22T07:59:48.249Z,3.10
2023-03-22T08:02:16.096Z,3.15
2023-03-22T08:04:42.865Z,2.80
2023-03-22T08:07:10.158Z,2.83
2023-03-22T08:09:37.631Z,3.47
2023-03-22T08:12:04.630Z,3.17
2023-03-22T08:14:36.677Z,3.50
2023-03-22T08:17:05.728Z,3.30
2023-03-22T08:19:33.308Z,3.42
2023-03-22T08:22:49.927Z,3.25
2023-03-22T08:25:16.767Z,3.47
2023-03-22T08:27:43.509Z,3.03
2023-03-22T08:30:11.123Z,3.40
2023-03-22T08:32:38.032Z,3.20
2023-03-22T08:35:06.438Z,2.67
2023-03-22T08:37:33.207Z,3.20
2023-03-22T08:39:59.982Z,2.60
2023-03-22T08:42:26.864Z,2.85
2023-03-22T08:44:53.581Z,2.40
2023-03-22T08:47:20.588Z,2.80
2023-03-22T08:49:47.414Z,2.75
2023-03-22T08:52:14.236Z,2.88
2023-03-22T08:54:41.501Z,2.63
2023-03-22T08:57:10.344Z,2.28
2023-03-22T08:59:37.262Z,2.55
2023-03-22T09:02:04.458Z,2.53
2023-03-22T09:04:31.504Z,2.65
2023-03-22T09:06:58.295Z,2.13
2023-03-22T09:09:25.414Z,2.15
2023-03-22T09:11:52.547Z,2.13
2023-03-22T09:14:19.333Z,2.05
2023-03-22T09:16:47.204Z,2.10
2023-03-22T09:19:14.172Z,2.53
2023-03-22T09:21:41.240Z,2.25
2023-03-22T09:24:08.682Z,2.40
2023-03-22T09:26:36.991Z,2.30
2023-03-22T09:29:03.814Z,2.47
2023-03-22T09:31:30.879Z,2.35
2023-03-22T09:33:57.643Z,2.40
2023-03-22T09:36:24.509Z,2.65
2023-03-22T09:38:51.417Z,2.33
2023-03-22T09:41:40.221Z,2.65
2023-03-22T09:44:14.247Z,2.60
2023-03-22T09:46:46.081Z,2.65
2023-03-22T09:49:24.459Z,2.60
2023-03-22T09:51:53.149Z,2.50
2023-03-22T09:54:35.310Z,3.10
2023-03-22T09:59:57.098Z,2.60
2023-03-22T10:02:54.897Z,2.70
2023-03-22T10:05:43.691Z,2.65
2023-03-22T10:08:27.756Z,3.30
2023-03-22T10:10:54.806Z,2.35
2023-03-22T10:13:24.200Z,2.58
2023-03-22T10:15:56.941Z,2.70
2023-03-22T10:18:25.934Z,2.42
2023-03-22T10:21:03.858Z,2.50
2023-03-22T10:23:37.024Z,2.88
2023-03-22T10:26:06.647Z,2.85
2023-03-22T10:28:44.391Z,2.95
2023-03-22T10:31:16.113Z,2.83
2023-03-22T10:33:53.624Z,2.70
2023-03-22T10:36:23.855Z,2.70
2023-03-22T10:38:56.440Z,2.78
2023-03-22T10:41:25.745Z,2.58
2023-03-22T10:43:55.647Z,2.75
2023-03-22T10:46:26.216Z,2.63
2023-03-22T10:48:58.730Z,2.72
2023-03-22T10:51:49.087Z,2.92
2023-03-22T10:54:26.375Z,2.70
2023-03-22T10:56:53.408Z,2.78
2023-03-22T10:59:42.444Z,2.58
2023-03-22T11:02:21.580Z,2.83
2023-03-22T11:04:53.867Z,2.92
2023-03-22T11:07:50.224Z,2.85
2023-03-22T11:10:29.723Z,2.90
2023-03-22T11:13:12.315Z,2.97
2023-03-22T11:15:51.771Z,2.53
2023-03-22T11:18:19.591Z,2.58
2023-03-22T11:21:03.887Z,2.38
2023-03-22T11:23:36.083Z,2.33
2023-03-22T11:26:12.088Z,2.38
2023-03-22T11:28:50.849Z,2.25
2023-03-22T11:31:20.535Z,2.53
2023-03-22T11:33:53.438Z,2.45
2023-03-22T11:36:20.584Z,2.70
2023-03-22T11:38:48.778Z,2.65
2023-03-22T11:41:27.316Z,2.53
2023-03-22T11:43:57.061Z,2.25
2023-03-22T11:46:24.997Z,1.92
2023-03-22T11:49:00.348Z,2.25
2023-03-22T11:51:38.821Z,2.00
2023-03-22T11:54:16.805Z,1.88
2023-03-22T11:56:47.353Z,1.90
2023-03-22T11:59:26.236Z,2.22
2023-03-22T12:02:29.351Z,2.20
2023-03-22T12:05:15.544Z,2.05
2023-03-22T12:07:43.434Z,2.20
2023-03-22T12:10:21.071Z,2.00
2023-03-22T12:12:56.263Z,2.47
2023-03-22T12:15:37.240Z,1.70
2023-03-22T12:18:13.820Z,1.80
2023-03-22T12:20:57.451Z,2.03
2023-03-22T12:23:27.478Z,1.80
2023-03-22T12:26:12.327Z,1.67
2023-03-22T12:28:52.605Z,1.58
2023-03-22T12:31:24.335Z,1.70
2023-03-22T12:33:54.816Z,1.92
2023-03-22T12:36:32.131Z,1.73
2023-03-22T12:39:01.327Z,2.08
2023-03-22T12:41:36.485Z,1.98
2023-03-22T12:44:11.284Z,1.85
2023-03-22T12:47:01.153Z,1.90
2023-03-22T12:49:35.846Z,1.90
2023-03-22T12:52:22.447Z,1.90
2023-03-22T12:54:53.122Z,2.00
2023-03-22T12:57:20.526Z,1.70
2023-03-22T12:59:52.209Z,2.20
2023-03-22T13:02:30.146Z,1.90
2023-03-22T13:05:06.695Z,2.10
2023-03-22T13:07:48.675Z,1.83
2023-03-22T13:10:34.158Z,2.38
2023-03-22T13:13:31.820Z,2.05
2023-03-22T13:15:58.697Z,1.88
2023-03-22T13:18:58.122Z,2.20
2023-03-22T13:21:29.913Z,1.70
2023-03-22T13:24:06.410Z,2.58
2023-03-22T13:26:53.508Z,1.83
2023-03-22T13:29:20.524Z,1.85
2023-03-22T13:31:47.259Z,1.70
2023-03-22T13:34:36.124Z,2.28
2023-03-22T13:37:05.326Z,2.17
2023-03-22T13:39:36.071Z,2.15
2023-03-22T13:42:08.599Z,1.77
2023-03-22T13:44:43.985Z,2.00
2023-03-22T13:47:35.977Z,2.40
2023-03-22T13:50:16.123Z,1.98
2023-03-22T13:52:53.016Z,1.95
2023-03-22T13:55:41.271Z,2.20
2023-03-22T13:58:37.436Z,1.90
2023-03-22T14:01:16.724Z,2.13
2023-03-22T14:03:47.499Z,2.20
2023-03-22T14:06:19.042Z,2.08
2023-03-22T14:08:51.909Z,1.98
2023-03-22T14:11:20.256Z,2.05
2023-03-22T14:13:56.248Z,1.85
2023-03-22T14:16:43.541Z,2.42
2023-03-22T14:19:25.111Z,1.65
